sensor_id;sensor_type;location;lat;lon;timestamp;P1;durP1;ratioP1;P2;durP2;ratioP2
6529;SDS011;3298;42.688;23.366;2022-11-23T00:01:34;11.33;;;10.17;;
6529;SDS011;3298;42.688;23.366;2022-11-23T00:04:02;17.03;;;11.40;;
6529;SDS011;3298;42.688;23.366;2022-11-23T00:06:30;18.27;;;15.27;;
6529;SDS011;3298;42.688;23.366;2022-11-23T00:08:57;20.90;;;14.93;;
6529;SDS011;3298;42.688;23.366;2022-11-23T00:11:25;18.23;;;12.40;;
6529;SDS011;3298;42.688;23.366;2022-11-23T00:13:52;12.97;;;10.83;;
6529;SDS011;3298;42.688;23.366;2022-11-23T00:16:22;15.53;;;11.47;;
6529;SDS011;3298;42.688;23.366;2022-11-23T00:18:51;13.53;;;9.90;;
6529;SDS011;3298;42.688;23.366;2022-11-23T00:21:18;12.77;;;9.37;;
6529;SDS011;3298;42.688;23.366;2022-11-23T00:23:46;13.53;;;9.63;;
6529;SDS011;3298;42.688;23.366;2022-11-23T00:26:13;16.13;;;8.83;;
6529;SDS011;3298;42.688;23.366;2022-11-23T00:28:42;9.63;;;8.63;;
6529;SDS011;3298;42.688;23.366;2022-11-23T00:31:09;10.50;;;8.73;;
6529;SDS011;3298;42.688;23.366;2022-11-23T00:33:39;10.33;;;9.30;;
6529;SDS011;3298;42.688;23.366;2022-11-23T00:36:07;13.17;;;8.63;;
6529;SDS011;3298;42.688;23.366;2022-11-23T00:38:36;12.63;;;10.63;;
6529;SDS011;3298;42.688;23.366;2022-11-23T00:41:04;13.00;;;9.67;;
6529;SDS011;3298;42.688;23.366;2022-11-23T00:43:32;12.33;;;9.00;;
6529;SDS011;3298;42.688;23.366;2022-11-23T00:46:03;13.23;;;9.77;;
6529;SDS011;3298;42.688;23.366;2022-11-23T00:48:31;18.00;;;9.57;;
6529;SDS011;3298;42.688;23.366;2022-11-23T00:51:00;11.33;;;9.57;;
6529;SDS011;3298;42.688;23.366;2022-11-23T00:53:27;12.47;;;9.53;;
6529;SDS011;3298;42.688;23.366;2022-11-23T00:55:56;11.80;;;9.90;;
6529;SDS011;3298;42.688;23.366;2022-11-23T00:58:23;11.67;;;9.60;;
6529;SDS011;3298;42.688;23.366;2022-11-23T01:00:58;11.33;;;10.07;;
6529;SDS011;3298;42.688;23.366;2022-11-23T01:03:26;15.83;;;10.17;;
6529;SDS011;3298;42.688;23.366;2022-11-23T01:05:54;10.20;;;9.20;;
6529;SDS011;3298;42.688;23.366;2022-11-23T01:08:22;11.17;;;9.33;;
6529;SDS011;3298;42.688;23.366;2022-11-23T01:10:49;11.90;;;9.23;;
6529;SDS011;3298;42.688;23.366;2022-11-23T01:13:16;12.33;;;9.97;;
6529;SDS011;3298;42.688;23.366;2022-11-23T01:15:47;13.47;;;10.13;;
6529;SDS011;3298;42.688;23.366;2022-11-23T01:18:15;13.73;;;10.70;;
6529;SDS011;3298;42.688;23.366;2022-11-23T01:20:41;12.00;;;10.00;;
6529;SDS011;3298;42.688;23.366;2022-11-23T01:23:08;11.27;;;10.10;;
6529;SDS011;3298;42.688;23.366;2022-11-23T01:25:36;13.63;;;10.33;;
6529;SDS011;3298;42.688;23.366;2022-11-23T01:28:03;17.17;;;9.93;;
6529;SDS011;3298;42.688;23.366;2022-11-23T01:30:30;13.67;;;9.67;;
6529;SDS011;3298;42.688;23.366;2022-11-23T01:32:58;12.57;;;10.00;;
6529;SDS011;3298;42.688;23.366;2022-11-23T01:35:25;12.63;;;10.57;;
6529;SDS011;3298;42.688;23.366;2022-11-23T01:37:53;17.20;;;10.63;;
6529;SDS011;3298;42.688;23.366;2022-11-23T01:40:20;10.63;;;9.60;;
6529;SDS011;3298;42.688;23.366;2022-11-23T01:42:51;12.77;;;9.20;;
6529;SDS011;3298;42.688;23.366;2022-11-23T01:45:34;11.80;;;10.07;;
6529;SDS011;3298;42.688;23.366;2022-11-23T01:48:04;12.83;;;10.23;;
6529;SDS011;3298;42.688;23.366;2022-11-23T01:50:34;14.57;;;10.20;;
6529;SDS011;3298;42.688;23.366;2022-11-23T01:53:02;13.17;;;10.90;;
6529;SDS011;3298;42.688;23.366;2022-11-23T01:55:28;14.07;;;11.00;;
6529;SDS011;3298;42.688;23.366;2022-11-23T01:57:57;12.80;;;11.47;;
6529;SDS011;3298;42.688;23.366;2022-11-23T02:00:25;17.67;;;12.53;;
6529;SDS011;3298;42.688;23.366;2022-11-23T02:02:52;15.70;;;12.63;;
6529;SDS011;3298;42.688;23.366;2022-11-23T02:05:24;13.93;;;10.60;;
6529;SDS011;3298;42.688;23.366;2022-11-23T02:07:55;13.63;;;10.87;;
6529;SDS011;3298;42.688;23.366;2022-11-23T02:10:24;15.30;;;11.30;;
6529;SDS011;3298;42.688;23.366;2022-11-23T02:12:52;14.13;;;11.67;;
6529;SDS011;3298;42.688;23.366;2022-11-23T02:15:20;12.97;;;10.73;;
6529;SDS011;3298;42.688;23.366;2022-11-23T02:17:47;14.33;;;11.17;;
6529;SDS011;3298;42.688;23.366;2022-11-23T02:20:15;13.13;;;10.93;;
6529;SDS011;3298;42.688;23.366;2022-11-23T02:22:47;13.00;;;10.00;;
6529;SDS011;3298;42.688;23.366;2022-11-23T02:25:20;13.43;;;11.13;;
6529;SDS011;3298;42.688;23.366;2022-11-23T02:27:54;11.47;;;10.23;;
6529;SDS011;3298;42.688;23.366;2022-11-23T02:30:22;10.60;;;9.50;;
6529;SDS011;3298;42.688;23.366;2022-11-23T02:32:49;12.00;;;9.10;;
6529;SDS011;3298;42.688;23.366;2022-11-23T02:35:15;10.60;;;9.33;;
6529;SDS011;3298;42.688;23.366;2022-11-23T02:37:42;13.17;;;11.03;;
6529;SDS011;3298;42.688;23.366;2022-11-23T02:40:10;10.50;;;9.40;;
6529;SDS011;3298;42.688;23.366;2022-11-23T02:42:45;15.17;;;10.93;;
6529;SDS011;3298;42.688;23.366;2022-11-23T02:45:17;12.13;;;10.90;;
6529;SDS011;3298;42.688;23.366;2022-11-23T02:47:49;14.33;;;11.03;;
6529;SDS011;3298;42.688;23.366;2022-11-23T02:50:16;11.87;;;10.67;;
6529;SDS011;3298;42.688;23.366;2022-11-23T02:52:43;11.93;;;9.27;;
6529;SDS011;3298;42.688;23.366;2022-11-23T02:55:10;16.70;;;10.43;;
6529;SDS011;3298;42.688;23.366;2022-11-23T02:57:37;15.73;;;11.47;;
6529;SDS011;3298;42.688;23.366;2022-11-23T03:00:04;16.30;;;13.10;;
6529;SDS011;3298;42.688;23.366;2022-11-23T03:02:33;21.30;;;14.90;;
6529;SDS011;3298;42.688;23.366;2022-11-23T03:05:00;20.03;;;13.80;;
6529;SDS011;3298;42.688;23.366;2022-11-23T03:07:27;19.53;;;13.37;;
6529;SDS011;3298;42.688;23.366;2022-11-23T03:09:53;16.77;;;12.33;;
6529;SDS011;3298;42.688;23.366;2022-11-23T03:12:20;15.13;;;12.17;;
6529;SDS011;3298;42.688;23.366;2022-11-23T03:14:47;11.03;;;9.07;;
6529;SDS011;3298;42.688;23.366;2022-11-23T03:17:14;13.70;;;9.57;;
6529;SDS011;3298;42.688;23.366;2022-11-23T03:19:42;10.70;;;9.73;;
6529;SDS011;3298;42.688;23.366;2022-11-23T03:22:09;9.97;;;9.03;;
6529;SDS011;3298;42.688;23.366;2022-11-23T03:24:35;10.50;;;9.37;;
6529;SDS011;3298;42.688;23.366;2022-11-23T03:27:02;12.50;;;8.57;;
6529;SDS011;3298;42.688;23.366;2022-11-23T03:29:29;9.40;;;8.40;;
6529;SDS011;3298;42.688;23.366;2022-11-23T03:31:56;9.50;;;8.23;;
6529;SDS011;3298;42.688;23.366;2022-11-23T03:34:23;12.53;;;9.00;;
6529;SDS011;3298;42.688;23.366;2022-11-23T03:36:51;11.30;;;8.13;;
6529;SDS011;3298;42.688;23.366;2022-11-23T03:39:18;9.40;;;8.13;;
6529;SDS011;3298;42.688;23.366;2022-11-23T03:41:45;8.80;;;7.77;;
6529;SDS011;3298;42.688;23.366;2022-11-23T03:44:11;9.60;;;7.63;;
6529;SDS011;3298;42.688;23.366;2022-11-23T03:46:38;13.13;;;7.73;;
6529;SDS011;3298;42.688;23.366;2022-11-23T03:49:05;8.03;;;7.33;;
6529;SDS011;3298;42.688;23.366;2022-11-23T03:51:32;9.07;;;7.83;;
6529;SDS011;3298;42.688;23.366;2022-11-23T03:54:00;9.07;;;7.47;;
6529;SDS011;3298;42.688;23.366;2022-11-23T03:56:27;11.97;;;7.67;;
6529;SDS011;3298;42.688;23.366;2022-11-23T03:58:54;11.07;;;7.93;;
6529;SDS011;3298;42.688;23.366;2022-11-23T04:01:20;11.03;;;7.63;;
6529;SDS011;3298;42.688;23.366;2022-11-23T04:03:47;9.10;;;7.47;;
6529;SDS011;3298;42.688;23.366;2022-11-23T04:06:14;12.03;;;7.90;;
6529;SDS011;3298;42.688;23.366;2022-11-23T04:08:41;15.80;;;9.70;;
6529;SDS011;3298;42.688;23.366;2022-11-23T04:11:09;11.40;;;8.90;;
6529;SDS011;3298;42.688;23.366;2022-11-23T04:13:36;11.90;;;8.70;;
6529;SDS011;3298;42.688;23.366;2022-11-23T04:16:02;10.23;;;9.07;;
6529;SDS011;3298;42.688;23.366;2022-11-23T04:18:31;11.30;;;8.43;;
6529;SDS011;3298;42.688;23.366;2022-11-23T04:20:58;10.40;;;8.87;;
6529;SDS011;3298;42.688;23.366;2022-11-23T04:23:25;10.43;;;8.87;;
6529;SDS011;3298;42.688;23.366;2022-11-23T04:25:51;10.17;;;9.17;;
6529;SDS011;3298;42.688;23.366;2022-11-23T04:28:20;11.50;;;8.30;;
6529;SDS011;3298;42.688;23.366;2022-11-23T04:30:46;9.70;;;8.90;;
6529;SDS011;3298;42.688;23.366;2022-11-23T04:33:13;9.33;;;8.53;;
6529;SDS011;3298;42.688;23.366;2022-11-23T04:35:40;11.60;;;8.67;;
6529;SDS011;3298;42.688;23.366;2022-11-23T04:38:07;9.67;;;8.67;;
6529;SDS011;3298;42.688;23.366;2022-11-23T04:40:33;9.00;;;8.00;;
6529;SDS011;3298;42.688;23.366;2022-11-23T04:43:00;10.20;;;8.90;;
6529;SDS011;3298;42.688;23.366;2022-11-23T04:45:28;13.77;;;11.10;;
6529;SDS011;3298;42.688;23.366;2022-11-23T04:47:55;13.10;;;10.33;;
6529;SDS011;3298;42.688;23.366;2022-11-23T04:50:22;14.60;;;11.77;;
6529;SDS011;3298;42.688;23.366;2022-11-23T04:52:49;15.30;;;10.47;;
6529;SDS011;3298;42.688;23.366;2022-11-23T04:55:16;12.97;;;10.00;;
6529;SDS011;3298;42.688;23.366;2022-11-23T04:57:42;13.57;;;9.53;;
6529;SDS011;3298;42.688;23.366;2022-11-23T05:00:10;10.03;;;9.07;;
6529;SDS011;3298;42.688;23.366;2022-11-23T05:02:39;9.17;;;8.33;;
6529;SDS011;3298;42.688;23.366;2022-11-23T05:05:06;13.07;;;8.40;;
6529;SDS011;3298;42.688;23.366;2022-11-23T05:07:33;14.90;;;7.93;;
6529;SDS011;3298;42.688;23.366;2022-11-23T05:10:00;8.90;;;7.77;;
6529;SDS011;3298;42.688;23.366;2022-11-23T05:12:27;7.83;;;7.03;;
6529;SDS011;3298;42.688;23.366;2022-11-23T05:14:53;9.27;;;7.20;;
6529;SDS011;3298;42.688;23.366;2022-11-23T05:17:20;10.13;;;9.17;;
6529;SDS011;3298;42.688;23.366;2022-11-23T05:19:48;12.17;;;8.27;;
6529;SDS011;3298;42.688;23.366;2022-11-23T05:22:15;16.27;;;8.70;;
6529;SDS011;3298;42.688;23.366;2022-11-23T05:24:42;9.63;;;8.63;;
6529;SDS011;3298;42.688;23.366;2022-11-23T05:27:09;8.13;;;7.43;;
6529;SDS011;3298;42.688;23.366;2022-11-23T05:29:36;9.70;;;8.80;;
6529;SDS011;3298;42.688;23.366;2022-11-23T05:32:03;12.30;;;9.60;;
6529;SDS011;3298;42.688;23.366;2022-11-23T05:34:30;9.47;;;8.57;;
6529;SDS011;3298;42.688;23.366;2022-11-23T05:36:58;10.80;;;9.30;;
6529;SDS011;3298;42.688;23.366;2022-11-23T05:39:25;9.57;;;8.53;;
6529;SDS011;3298;42.688;23.366;2022-11-23T05:41:52;9.50;;;8.50;;
6529;SDS011;3298;42.688;23.366;2022-11-23T05:44:19;10.40;;;9.23;;
6529;SDS011;3298;42.688;23.366;2022-11-23T05:46:46;12.07;;;9.60;;
6529;SDS011;3298;42.688;23.366;2022-11-23T05:49:12;10.13;;;9.13;;
6529;SDS011;3298;42.688;23.366;2022-11-23T05:51:39;10.97;;;9.30;;
6529;SDS011;3298;42.688;23.366;2022-11-23T05:54:07;10.13;;;8.73;;
6529;SDS011;3298;42.688;23.366;2022-11-23T05:56:34;11.27;;;9.20;;
6529;SDS011;3298;42.688;23.366;2022-11-23T05:59:01;12.33;;;10.33;;
6529;SDS011;3298;42.688;23.366;2022-11-23T06:01:29;11.47;;;10.37;;
6529;SDS011;3298;42.688;23.366;2022-11-23T06:03:57;13.23;;;11.23;;
6529;SDS011;3298;42.688;23.366;2022-11-23T06:06:24;11.80;;;10.60;;
6529;SDS011;3298;42.688;23.366;2022-11-23T06:08:50;12.03;;;10.73;;
6529;SDS011;3298;42.688;23.366;2022-11-23T06:11:19;13.30;;;10.93;;
6529;SDS011;3298;42.688;23.366;2022-11-23T06:13:45;12.53;;;9.40;;
6529;SDS011;3298;42.688;23.366;2022-11-23T06:16:13;12.50;;;10.90;;
6529;SDS011;3298;42.688;23.366;2022-11-23T06:18:40;10.93;;;9.90;;
6529;SDS011;3298;42.688;23.366;2022-11-23T06:21:07;10.43;;;9.40;;
6529;SDS011;3298;42.688;23.366;2022-11-23T06:23:33;12.97;;;11.20;;
6529;SDS011;3298;42.688;23.366;2022-11-23T06:26:01;13.93;;;11.23;;
6529;SDS011;3298;42.688;23.366;2022-11-23T06:28:29;16.00;;;13.50;;
6529;SDS011;3298;42.688;23.366;2022-11-23T06:31:00;13.50;;;10.83;;
6529;SDS011;3298;42.688;23.366;2022-11-23T06:33:27;12.60;;;11.33;;
6529;SDS011;3298;42.688;23.366;2022-11-23T06:35:54;17.83;;;10.80;;
6529;SDS011;3298;42.688;23.366;2022-11-23T06:38:22;11.90;;;10.03;;
6529;SDS011;3298;42.688;23.366;2022-11-23T06:40:49;16.37;;;11.67;;
6529;SDS011;3298;42.688;23.366;2022-11-23T06:43:16;13.23;;;10.73;;
6529;SDS011;3298;42.688;23.366;2022-11-23T06:45:45;13.47;;;11.23;;
6529;SDS011;3298;42.688;23.366;2022-11-23T06:48:21;13.40;;;11.70;;
6529;SDS011;3298;42.688;23.366;2022-11-23T06:50:49;13.63;;;11.93;;
6529;SDS011;3298;42.688;23.366;2022-11-23T06:53:16;20.60;;;13.43;;
6529;SDS011;3298;42.688;23.366;2022-11-23T06:55:43;16.17;;;11.50;;
6529;SDS011;3298;42.688;23.366;2022-11-23T06:58:10;13.57;;;11.80;;
6529;SDS011;3298;42.688;23.366;2022-11-23T07:00:37;13.57;;;12.17;;
6529;SDS011;3298;42.688;23.366;2022-11-23T07:03:05;21.63;;;14.13;;
6529;SDS011;3298;42.688;23.366;2022-11-23T07:05:32;16.60;;;14.57;;
6529;SDS011;3298;42.688;23.366;2022-11-23T07:07:59;14.20;;;12.70;;
6529;SDS011;3298;42.688;23.366;2022-11-23T07:10:26;20.20;;;13.00;;
6529;SDS011;3298;42.688;23.366;2022-11-23T07:12:53;13.80;;;12.30;;
6529;SDS011;3298;42.688;23.366;2022-11-23T07:15:19;14.93;;;11.47;;
6529;SDS011;3298;42.688;23.366;2022-11-23T07:17:46;16.53;;;13.27;;
6529;SDS011;3298;42.688;23.366;2022-11-23T07:20:15;13.73;;;12.17;;
6529;SDS011;3298;42.688;23.366;2022-11-23T07:22:42;13.67;;;12.33;;
6529;SDS011;3298;42.688;23.366;2022-11-23T07:25:08;16.97;;;12.73;;
6529;SDS011;3298;42.688;23.366;2022-11-23T07:27:40;13.93;;;12.53;;
6529;SDS011;3298;42.688;23.366;2022-11-23T07:30:08;13.97;;;11.73;;
6529;SDS011;3298;42.688;23.366;2022-11-23T07:32:35;15.23;;;12.97;;
6529;SDS011;3298;42.688;23.366;2022-11-23T07:35:02;15.40;;;12.83;;
6529;SDS011;3298;42.688;23.366;2022-11-23T07:37:31;13.57;;;12.20;;
6529;SDS011;3298;42.688;23.366;2022-11-23T07:39:58;19.70;;;13.30;;
6529;SDS011;3298;42.688;23.366;2022-11-23T07:42:24;15.53;;;13.10;;
6529;SDS011;3298;42.688;23.366;2022-11-23T07:44:51;24.10;;;17.63;;
6529;SDS011;3298;42.688;23.366;2022-11-23T07:47:18;15.17;;;13.27;;
6529;SDS011;3298;42.688;23.366;2022-11-23T07:49:45;13.73;;;12.33;;
6529;SDS011;3298;42.688;23.366;2022-11-23T07:52:11;14.23;;;12.67;;
6529;SDS011;3298;42.688;23.366;2022-11-23T07:54:40;14.67;;;12.53;;
6529;SDS011;3298;42.688;23.366;2022-11-23T07:57:06;15.37;;;13.87;;
6529;SDS011;3298;42.688;23.366;2022-11-23T07:59:33;17.10;;;14.20;;
6529;SDS011;3298;42.688;23.366;2022-11-23T08:02:00;18.53;;;15.10;;
6529;SDS011;3298;42.688;23.366;2022-11-23T08:04:27;22.00;;;14.70;;
6529;SDS011;3298;42.688;23.366;2022-11-23T08:06:54;15.97;;;14.37;;
6529;SDS011;3298;42.688;23.366;2022-11-23T08:09:21;16.70;;;14.97;;
6529;SDS011;3298;42.688;23.366;2022-11-23T08:11:49;16.73;;;14.93;;
6529;SDS011;3298;42.688;23.366;2022-11-23T08:14:16;22.93;;;15.83;;
6529;SDS011;3298;42.688;23.366;2022-11-23T08:16:43;15.80;;;14.17;;
6529;SDS011;3298;42.688;23.366;2022-11-23T08:19:13;21.13;;;16.60;;
6529;SDS011;3298;42.688;23.366;2022-11-23T08:21:40;17.60;;;15.20;;
6529;SDS011;3298;42.688;23.366;2022-11-23T08:24:07;15.83;;;14.13;;
6529;SDS011;3298;42.688;23.366;2022-11-23T08:26:34;16.23;;;14.10;;
6529;SDS011;3298;42.688;23.366;2022-11-23T08:29:02;17.07;;;13.83;;
6529;SDS011;3298;42.688;23.366;2022-11-23T08:31:29;15.50;;;13.33;;
6529;SDS011;3298;42.688;23.366;2022-11-23T08:33:56;16.17;;;13.83;;
6529;SDS011;3298;42.688;23.366;2022-11-23T08:36:22;15.67;;;14.00;;
6529;SDS011;3298;42.688;23.366;2022-11-23T08:38:49;19.33;;;14.80;;
6529;SDS011;3298;42.688;23.366;2022-11-23T08:41:16;15.67;;;13.93;;
6529;SDS011;3298;42.688;23.366;2022-11-23T08:43:44;17.77;;;14.30;;
6529;SDS011;3298;42.688;23.366;2022-11-23T08:46:13;14.17;;;12.67;;
6529;SDS011;3298;42.688;23.366;2022-11-23T08:48:40;14.27;;;12.87;;
6529;SDS011;3298;42.688;23.366;2022-11-23T08:51:07;12.33;;;10.97;;
6529;SDS011;3298;42.688;23.366;2022-11-23T08:53:34;13.77;;;12.30;;
6529;SDS011;3298;42.688;23.366;2022-11-23T08:56:01;13.30;;;11.90;;
6529;SDS011;3298;42.688;23.366;2022-11-23T08:58:28;14.03;;;12.63;;
6529;SDS011;3298;42.688;23.366;2022-11-23T09:00:56;13.83;;;11.53;;
6529;SDS011;3298;42.688;23.366;2022-11-23T09:03:24;14.23;;;11.40;;
6529;SDS011;3298;42.688;23.366;2022-11-23T09:05:51;12.50;;;10.63;;
6529;SDS011;3298;42.688;23.366;2022-11-23T09:08:18;12.60;;;11.00;;
6529;SDS011;3298;42.688;23.366;2022-11-23T09:10:45;13.10;;;11.47;;
6529;SDS011;3298;42.688;23.366;2022-11-23T09:13:12;13.00;;;11.20;;
6529;SDS011;3298;42.688;23.366;2022-11-23T09:15:39;14.10;;;10.57;;
6529;SDS011;3298;42.688;23.366;2022-11-23T09:18:05;96.80;;;16.47;;
6529;SDS011;3298;42.688;23.366;2022-11-23T09:20:34;20.47;;;10.47;;
6529;SDS011;3298;42.688;23.366;2022-11-23T09:23:00;10.80;;;8.93;;
6529;SDS011;3298;42.688;23.366;2022-11-23T09:25:27;12.03;;;10.30;;
6529;SDS011;3298;42.688;23.366;2022-11-23T09:27:55;13.37;;;9.70;;
6529;SDS011;3298;42.688;23.366;2022-11-23T09:30:23;12.10;;;8.97;;
6529;SDS011;3298;42.688;23.366;2022-11-23T09:32:50;10.53;;;8.63;;
6529;SDS011;3298;42.688;23.366;2022-11-23T09:35:17;9.67;;;8.70;;
6529;SDS011;3298;42.688;23.366;2022-11-23T09:37:45;9.30;;;8.50;;
6529;SDS011;3298;42.688;23.366;2022-11-23T09:40:13;10.63;;;8.33;;
6529;SDS011;3298;42.688;23.366;2022-11-23T09:42:52;9.87;;;8.87;;
6529;SDS011;3298;42.688;23.366;2022-11-23T09:45:26;7.50;;;6.90;;
6529;SDS011;3298;42.688;23.366;2022-11-23T09:48:13;7.73;;;7.13;;
6529;SDS011;3298;42.688;23.366;2022-11-23T09:50:52;8.60;;;7.23;;
6529;SDS011;3298;42.688;23.366;2022-11-23T09:53:28;11.30;;;7.17;;
6529;SDS011;3298;42.688;23.366;2022-11-23T09:55:59;8.17;;;7.43;;
6529;SDS011;3298;42.688;23.366;2022-11-23T09:58:28;7.30;;;6.80;;
6529;SDS011;3298;42.688;23.366;2022-11-23T10:01:02;8.20;;;7.27;;
6529;SDS011;3298;42.688;23.366;2022-11-23T10:03:31;7.57;;;6.87;;
6529;SDS011;3298;42.688;23.366;2022-11-23T10:06:03;6.23;;;5.63;;
6529;SDS011;3298;42.688;23.366;2022-11-23T10:08:45;10.20;;;6.30;;
6529;SDS011;3298;42.688;23.366;2022-11-23T10:11:25;6.13;;;5.60;;
6529;SDS011;3298;42.688;23.366;2022-11-23T10:14:07;6.33;;;5.80;;
6529;SDS011;3298;42.688;23.366;2022-11-23T10:16:44;6.17;;;5.77;;
6529;SDS011;3298;42.688;23.366;2022-11-23T10:19:18;6.40;;;5.80;;
6529;SDS011;3298;42.688;23.366;2022-11-23T10:22:01;6.53;;;6.03;;
6529;SDS011;3298;42.688;23.366;2022-11-23T10:24:36;4.20;;;3.90;;
6529;SDS011;3298;42.688;23.366;2022-11-23T10:27:09;3.60;;;3.40;;
6529;SDS011;3298;42.688;23.366;2022-11-23T10:29:39;5.60;;;3.70;;
6529;SDS011;3298;42.688;23.366;2022-11-23T10:32:12;4.73;;;4.23;;
6529;SDS011;3298;42.688;23.366;2022-11-23T10:34:48;5.40;;;3.87;;
6529;SDS011;3298;42.688;23.366;2022-11-23T10:37:25;3.87;;;3.57;;
6529;SDS011;3298;42.688;23.366;2022-11-23T10:39:54;3.60;;;3.37;;
6529;SDS011;3298;42.688;23.366;2022-11-23T10:42:22;4.13;;;3.90;;
6529;SDS011;3298;42.688;23.366;2022-11-23T10:44:54;3.83;;;3.37;;
6529;SDS011;3298;42.688;23.366;2022-11-23T10:47:37;3.67;;;3.37;;
6529;SDS011;3298;42.688;23.366;2022-11-23T10:52:54;7.50;;;6.90;;
6529;SDS011;3298;42.688;23.366;2022-11-23T10:55:28;10.00;;;9.00;;
6529;SDS011;3298;42.688;23.366;2022-11-23T10:57:57;7.03;;;6.43;;
6529;SDS011;3298;42.688;23.366;2022-11-23T11:00:25;6.07;;;5.50;;
6529;SDS011;3298;42.688;23.366;2022-11-23T11:02:53;4.57;;;4.17;;
6529;SDS011;3298;42.688;23.366;2022-11-23T11:05:26;4.83;;;2.67;;
6529;SDS011;3298;42.688;23.366;2022-11-23T11:07:55;3.70;;;3.47;;
6529;SDS011;3298;42.688;23.366;2022-11-23T11:13:24;3.80;;;3.40;;
6529;SDS011;3298;42.688;23.366;2022-11-23T11:15:54;6.43;;;3.00;;
6529;SDS011;3298;42.688;23.366;2022-11-23T11:18:23;2.80;;;2.60;;
6529;SDS011;3298;42.688;23.366;2022-11-23T11:20:57;3.63;;;2.00;;
6529;SDS011;3298;42.688;23.366;2022-11-23T11:23:25;2.50;;;2.30;;
6529;SDS011;3298;42.688;23.366;2022-11-23T11:28:49;2.83;;;2.63;;
6529;SDS011;3298;42.688;23.366;2022-11-23T11:31:36;5.73;;;2.93;;
6529;SDS011;3298;42.688;23.366;2022-11-23T11:34:17;3.03;;;2.70;;
6529;SDS011;3298;42.688;23.366;2022-11-23T11:36:49;2.67;;;2.20;;
6529;SDS011;3298;42.688;23.366;2022-11-23T11:39:23;2.60;;;2.43;;
6529;SDS011;3298;42.688;23.366;2022-11-23T11:41:55;7.00;;;3.30;;
6529;SDS011;3298;42.688;23.366;2022-11-23T11:44:25;3.37;;;3.17;;
6529;SDS011;3298;42.688;23.366;2022-11-23T11:46:55;3.33;;;3.03;;
6529;SDS011;3298;42.688;23.366;2022-11-23T11:49:27;4.67;;;3.60;;
6529;SDS011;3298;42.688;23.366;2022-11-23T11:51:58;3.93;;;3.63;;
6529;SDS011;3298;42.688;23.366;2022-11-23T11:54:34;4.10;;;3.57;;
6529;SDS011;3298;42.688;23.366;2022-11-23T11:57:11;4.33;;;3.77;;
6529;SDS011;3298;42.688;23.366;2022-11-23T11:59:43;14.70;;;9.63;;
6529;SDS011;3298;42.688;23.366;2022-11-23T12:02:17;7.30;;;6.47;;
6529;SDS011;3298;42.688;23.366;2022-11-23T12:04:49;6.03;;;5.13;;
6529;SDS011;3298;42.688;23.366;2022-11-23T12:07:27;5.60;;;3.43;;
6529;SDS011;3298;42.688;23.366;2022-11-23T12:09:56;2.70;;;2.50;;
6529;SDS011;3298;42.688;23.366;2022-11-23T12:12:32;2.63;;;1.93;;
6529;SDS011;3298;42.688;23.366;2022-11-23T12:15:02;1.67;;;1.50;;
6529;SDS011;3298;42.688;23.366;2022-11-23T12:17:41;2.60;;;1.70;;
6529;SDS011;3298;42.688;23.366;2022-11-23T12:20:29;1.33;;;1.27;;
6529;SDS011;3298;42.688;23.366;2022-11-23T12:23:08;3.17;;;2.00;;
6529;SDS011;3298;42.688;23.366;2022-11-23T12:25:45;5.10;;;1.47;;
6529;SDS011;3298;42.688;23.366;2022-11-23T12:28:25;1.80;;;1.40;;
6529;SDS011;3298;42.688;23.366;2022-11-23T12:31:08;2.47;;;1.30;;
6529;SDS011;3298;42.688;23.366;2022-11-23T12:36:39;2.53;;;0.93;;
6529;SDS011;3298;42.688;23.366;2022-11-23T12:39:14;0.83;;;0.83;;
6529;SDS011;3298;42.688;23.366;2022-11-23T12:41:53;1.27;;;1.17;;
6529;SDS011;3298;42.688;23.366;2022-11-23T12:47:36;0.80;;;0.80;;
6529;SDS011;3298;42.688;23.366;2022-11-23T12:50:16;3.60;;;1.43;;
6529;SDS011;3298;42.688;23.366;2022-11-23T12:52:59;3.40;;;0.90;;
6529;SDS011;3298;42.688;23.366;2022-11-23T12:55:36;0.63;;;0.60;;
6529;SDS011;3298;42.688;23.366;2022-11-23T12:58:14;0.90;;;0.70;;
6529;SDS011;3298;42.688;23.366;2022-11-23T13:00:48;1.53;;;0.80;;
6529;SDS011;3298;42.688;23.366;2022-11-23T13:06:22;1.53;;;0.90;;
6529;SDS011;3298;42.688;23.366;2022-11-23T13:09:21;1.73;;;1.57;;
6529;SDS011;3298;42.688;23.366;2022-11-23T13:12:02;2.47;;;1.30;;
6529;SDS011;3298;42.688;23.366;2022-11-23T13:14:41;2.17;;;1.97;;
6529;SDS011;3298;42.688;23.366;2022-11-23T13:17:23;1.00;;;1.00;;
6529;SDS011;3298;42.688;23.366;2022-11-23T13:22:53;5.30;;;1.53;;
6529;SDS011;3298;42.688;23.366;2022-11-23T13:25:23;0.57;;;0.57;;
6529;SDS011;3298;42.688;23.366;2022-11-23T13:27:58;1.50;;;0.90;;
6529;SDS011;3298;42.688;23.366;2022-11-23T13:30:30;1.60;;;0.80;;
6529;SDS011;3298;42.688;23.366;2022-11-23T13:33:23;0.50;;;0.50;;
6529;SDS011;3298;42.688;23.366;2022-11-23T13:35:56;1.23;;;0.77;;
6529;SDS011;3298;42.688;23.366;2022-11-23T13:38:25;4.20;;;1.40;;
6529;SDS011;3298;42.688;23.366;2022-11-23T13:40:53;3.67;;;2.20;;
6529;SDS011;3298;42.688;23.366;2022-11-23T13:43:21;1.57;;;1.27;;
6529;SDS011;3298;42.688;23.366;2022-11-23T13:48:46;3.93;;;2.00;;
6529;SDS011;3298;42.688;23.366;2022-11-23T13:51:21;2.63;;;1.30;;
6529;SDS011;3298;42.688;23.366;2022-11-23T13:53:51;2.00;;;0.87;;
6529;SDS011;3298;42.688;23.366;2022-11-23T13:56:24;2.00;;;1.10;;
6529;SDS011;3298;42.688;23.366;2022-11-23T13:58:56;2.50;;;0.87;;
6529;SDS011;3298;42.688;23.366;2022-11-23T14:02:01;3.03;;;1.00;;
6529;SDS011;3298;42.688;23.366;2022-11-23T14:04:53;7.60;;;1.20;;
6529;SDS011;3298;42.688;23.366;2022-11-23T14:07:59;3.30;;;1.10;;
6529;SDS011;3298;42.688;23.366;2022-11-23T14:10:29;1.93;;;0.60;;
6529;SDS011;3298;42.688;23.366;2022-11-23T14:12:59;1.73;;;1.37;;
6529;SDS011;3298;42.688;23.366;2022-11-23T14:15:31;1.50;;;1.40;;
6529;SDS011;3298;42.688;23.366;2022-11-23T14:18:10;1.50;;;1.30;;
6529;SDS011;3298;42.688;23.366;2022-11-23T14:20:55;3.70;;;2.00;;
6529;SDS011;3298;42.688;23.366;2022-11-23T14:26:52;1.70;;;1.20;;
6529;SDS011;3298;42.688;23.366;2022-11-23T14:29:31;3.60;;;2.30;;
6529;SDS011;3298;42.688;23.366;2022-11-23T14:32:25;7.20;;;1.43;;
6529;SDS011;3298;42.688;23.366;2022-11-23T14:35:07;6.60;;;5.10;;
6529;SDS011;3298;42.688;23.366;2022-11-23T14:37:49;3.13;;;1.30;;
6529;SDS011;3298;42.688;23.366;2022-11-23T14:40:28;2.00;;;1.83;;
6529;SDS011;3298;42.688;23.366;2022-11-23T14:43:03;1.43;;;1.33;;
6529;SDS011;3298;42.688;23.366;2022-11-23T14:45:31;12.83;;;2.83;;
6529;SDS011;3298;42.688;23.366;2022-11-23T14:50:52;8.97;;;2.37;;
6529;SDS011;3298;42.688;23.366;2022-11-23T14:53:23;4.60;;;2.47;;
6529;SDS011;3298;42.688;23.366;2022-11-23T14:55:53;2.80;;;2.60;;
6529;SDS011;3298;42.688;23.366;2022-11-23T14:58:20;6.37;;;2.57;;
6529;SDS011;3298;42.688;23.366;2022-11-23T15:00:49;4.10;;;2.17;;
6529;SDS011;3298;42.688;23.366;2022-11-23T15:03:18;10.07;;;4.40;;
6529;SDS011;3298;42.688;23.366;2022-11-23T15:05:46;13.50;;;6.30;;
6529;SDS011;3298;42.688;23.366;2022-11-23T15:08:18;12.03;;;5.67;;
6529;SDS011;3298;42.688;23.366;2022-11-23T15:10:50;9.67;;;4.97;;
6529;SDS011;3298;42.688;23.366;2022-11-23T15:13:25;58.20;;;10.73;;
6529;SDS011;3298;42.688;23.366;2022-11-23T15:15:55;16.00;;;6.50;;
6529;SDS011;3298;42.688;23.366;2022-11-23T15:18:26;14.67;;;6.50;;
6529;SDS011;3298;42.688;23.366;2022-11-23T15:20:56;8.33;;;5.03;;
6529;SDS011;3298;42.688;23.366;2022-11-23T15:23:27;4.97;;;3.47;;
6529;SDS011;3298;42.688;23.366;2022-11-23T15:26:01;10.10;;;6.17;;
6529;SDS011;3298;42.688;23.366;2022-11-23T15:28:31;8.53;;;5.67;;
6529;SDS011;3298;42.688;23.366;2022-11-23T15:31:14;12.83;;;5.90;;
6529;SDS011;3298;42.688;23.366;2022-11-23T15:33:44;8.10;;;5.10;;
6529;SDS011;3298;42.688;23.366;2022-11-23T15:36:12;11.30;;;5.13;;